sensor_id;sensor_type;location;lat;lon;timestamp;temperature;humidity
63047;DHT22;62025;39.238;9.126;2024-03-25T00:01:39;14.90;60.50
63047;DHT22;62025;39.238;9.126;2024-03-25T00:04:05;15.00;60.30
63047;DHT22;62025;39.238;9.126;2024-03-25T00:06:31;15.00;60.50
63047;DHT22;62025;39.238;9.126;2024-03-25T00:09:00;15.00;60.60
63047;DHT22;62025;39.238;9.126;2024-03-25T00:11:27;15.10;60.60
63047;DHT22;62025;39.238;9.126;2024-03-25T00:13:53;15.10;60.60
63047;DHT22;62025;39.238;9.126;2024-03-25T00:16:19;15.10;60.60
63047;DHT22;62025;39.238;9.126;2024-03-25T00:18:45;15.00;60.60
63047;DHT22;62025;39.238;9.126;2024-03-25T00:21:11;15.00;60.60
63047;DHT22;62025;39.238;9.126;2024-03-25T00:23:37;15.00;60.60
63047;DHT22;62025;39.238;9.126;2024-03-25T00:26:03;15.00;60.40
63047;DHT22;62025;39.238;9.126;2024-03-25T00:28:29;15.00;60.40
63047;DHT22;62025;39.238;9.126;2024-03-25T00:30:55;15.00;60.30
63047;DHT22;62025;39.238;9.126;2024-03-25T00:33:21;15.00;60.60
63047;DHT22;62025;39.238;9.126;2024-03-25T00:35:47;15.00;60.40
63047;DHT22;62025;39.238;9.126;2024-03-25T00:38:15;15.00;60.50
63047;DHT22;62025;39.238;9.126;2024-03-25T00:40:41;14.90;60.70
63047;DHT22;62025;39.238;9.126;2024-03-25T00:43:07;14.90;60.70
63047;DHT22;62025;39.238;9.126;2024-03-25T00:45:33;14.80;60.80
63047;DHT22;62025;39.238;9.126;2024-03-25T00:47:59;14.80;61.00
63047;DHT22;62025;39.238;9.126;2024-03-25T00:50:26;14.90;61.00
63047;DHT22;62025;39.238;9.126;2024-03-25T00:52:52;14.80;61.20
63047;DHT22;62025;39.238;9.126;2024-03-25T00:55:18;14.80;61.30
63047;DHT22;62025;39.238;9.126;2024-03-25T00:57:45;14.80;61.40
63047;DHT22;62025;39.238;9.126;2024-03-25T01:00:11;14.80;61.50
63047;DHT22;62025;39.238;9.126;2024-03-25T01:02:38;14.80;61.30
63047;DHT22;62025;39.238;9.126;2024-03-25T01:05:04;14.80;61.20
63047;DHT22;62025;39.238;9.126;2024-03-25T01:07:31;14.90;61.20
63047;DHT22;62025;39.238;9.126;2024-03-25T01:09:57;14.80;60.90
63047;DHT22;62025;39.238;9.126;2024-03-25T01:12:24;14.80;61.20
63047;DHT22;62025;39.238;9.126;2024-03-25T01:14:51;14.80;61.30
63047;DHT22;62025;39.238;9.126;2024-03-25T01:17:18;14.80;61.10
63047;DHT22;62025;39.238;9.126;2024-03-25T01:19:44;14.70;61.40
63047;DHT22;62025;39.238;9.126;2024-03-25T01:22:10;14.80;61.40
63047;DHT22;62025;39.238;9.126;2024-03-25T01:24:36;14.80;61.50
63047;DHT22;62025;39.238;9.126;2024-03-25T01:27:02;14.80;61.40
63047;DHT22;62025;39.238;9.126;2024-03-25T01:29:28;14.80;61.20
63047;DHT22;62025;39.238;9.126;2024-03-25T01:31:54;14.80;61.10
63047;DHT22;62025;39.238;9.126;2024-03-25T01:34:20;14.80;61.20
63047;DHT22;62025;39.238;9.126;2024-03-25T01:36:46;14.70;61.30
63047;DHT22;62025;39.238;9.126;2024-03-25T01:39:12;14.80;61.50
63047;DHT22;62025;39.238;9.126;2024-03-25T01:41:39;14.70;61.60
63047;DHT22;62025;39.238;9.126;2024-03-25T01:44:05;14.70;61.70
63047;DHT22;62025;39.238;9.126;2024-03-25T01:46:31;14.70;61.60
63047;DHT22;62025;39.238;9.126;2024-03-25T01:48:57;14.70;61.70
63047;DHT22;62025;39.238;9.126;2024-03-25T01:51:24;14.70;61.70
63047;DHT22;62025;39.238;9.126;2024-03-25T01:53:52;14.70;61.80
63047;DHT22;62025;39.238;9.126;2024-03-25T01:56:19;14.70;61.60
63047;DHT22;62025;39.238;9.126;2024-03-25T01:58:46;14.70;61.50
63047;DHT22;62025;39.238;9.126;2024-03-25T02:01:12;14.60;61.90
63047;DHT22;62025;39.238;9.126;2024-03-25T02:03:42;14.60;61.70
63047;DHT22;62025;39.238;9.126;2024-03-25T02:06:17;14.60;61.80
63047;DHT22;62025;39.238;9.126;2024-03-25T02:08:44;14.50;61.70
63047;DHT22;62025;39.238;9.126;2024-03-25T02:11:11;14.50;61.70
63047;DHT22;62025;39.238;9.126;2024-03-25T02:13:38;14.50;61.80
63047;DHT22;62025;39.238;9.126;2024-03-25T02:16:05;14.60;61.60
63047;DHT22;62025;39.238;9.126;2024-03-25T02:18:31;14.50;61.70
63047;DHT22;62025;39.238;9.126;2024-03-25T02:20:58;14.50;61.70
63047;DHT22;62025;39.238;9.126;2024-03-25T02:23:25;14.50;61.50
63047;DHT22;62025;39.238;9.126;2024-03-25T02:25:52;14.60;61.40
63047;DHT22;62025;39.238;9.126;2024-03-25T02:28:20;14.60;60.90
63047;DHT22;62025;39.238;9.126;2024-03-25T02:30:46;14.60;60.80
63047;DHT22;62025;39.238;9.126;2024-03-25T02:33:13;14.50;60.80
63047;DHT22;62025;39.238;9.126;2024-03-25T02:35:40;14.60;60.50
63047;DHT22;62025;39.238;9.126;2024-03-25T02:38:08;14.60;60.60
63047;DHT22;62025;39.238;9.126;2024-03-25T02:40:35;14.60;60.30
63047;DHT22;62025;39.238;9.126;2024-03-25T02:43:02;14.70;60.30
63047;DHT22;62025;39.238;9.126;2024-03-25T02:45:28;14.60;60.40
63047;DHT22;62025;39.238;9.126;2024-03-25T02:47:54;14.60;60.80
63047;DHT22;62025;39.238;9.126;2024-03-25T02:50:21;14.40;61.00
63047;DHT22;62025;39.238;9.126;2024-03-25T02:52:47;14.50;61.00
63047;DHT22;62025;39.238;9.126;2024-03-25T02:55:13;14.50;61.00
63047;DHT22;62025;39.238;9.126;2024-03-25T02:57:39;14.50;61.10
63047;DHT22;62025;39.238;9.126;2024-03-25T03:00:05;14.50;60.90
63047;DHT22;62025;39.238;9.126;2024-03-25T03:02:34;14.40;60.90
63047;DHT22;62025;39.238;9.126;2024-03-25T03:05:00;14.50;61.00
63047;DHT22;62025;39.238;9.126;2024-03-25T03:07:26;14.40;60.70
63047;DHT22;62025;39.238;9.126;2024-03-25T03:09:52;14.40;60.60
63047;DHT22;62025;39.238;9.126;2024-03-25T03:12:18;14.50;60.30
63047;DHT22;62025;39.238;9.126;2024-03-25T03:14:44;14.50;60.30
63047;DHT22;62025;39.238;9.126;2024-03-25T03:17:10;14.50;59.80
63047;DHT22;62025;39.238;9.126;2024-03-25T03:19:36;14.60;60.00
63047;DHT22;62025;39.238;9.126;2024-03-25T03:22:02;14.60;59.60
63047;DHT22;62025;39.238;9.126;2024-03-25T03:24:28;14.60;59.80
63047;DHT22;62025;39.238;9.126;2024-03-25T03:26:54;14.60;59.50
63047;DHT22;62025;39.238;9.126;2024-03-25T03:29:20;14.50;59.60
63047;DHT22;62025;39.238;9.126;2024-03-25T03:31:46;14.50;59.80
63047;DHT22;62025;39.238;9.126;2024-03-25T03:34:12;14.50;59.60
63047;DHT22;62025;39.238;9.126;2024-03-25T03:36:38;14.50;59.70
63047;DHT22;62025;39.238;9.126;2024-03-25T03:39:06;14.50;59.50
63047;DHT22;62025;39.238;9.126;2024-03-25T03:41:34;14.50;59.50
63047;DHT22;62025;39.238;9.126;2024-03-25T03:44:01;14.40;59.40
63047;DHT22;62025;39.238;9.126;2024-03-25T03:46:28;14.50;59.30
63047;DHT22;62025;39.238;9.126;2024-03-25T03:48:54;14.50;59.20
63047;DHT22;62025;39.238;9.126;2024-03-25T03:51:20;14.40;59.40
63047;DHT22;62025;39.238;9.126;2024-03-25T03:53:46;14.40;59.40
63047;DHT22;62025;39.238;9.126;2024-03-25T03:56:12;14.40;59.80
63047;DHT22;62025;39.238;9.126;2024-03-25T03:58:38;14.40;59.60
63047;DHT22;62025;39.238;9.126;2024-03-25T04:01:04;14.40;59.50
63047;DHT22;62025;39.238;9.126;2024-03-25T04:03:30;14.60;58.90
63047;DHT22;62025;39.238;9.126;2024-03-25T04:05:56;14.60;59.20
63047;DHT22;62025;39.238;9.126;2024-03-25T04:08:22;14.50;59.30
63047;DHT22;62025;39.238;9.126;2024-03-25T04:10:49;14.60;59.70
63047;DHT22;62025;39.238;9.126;2024-03-25T04:13:15;14.40;59.50
63047;DHT22;62025;39.238;9.126;2024-03-25T04:15:42;14.40;59.50
63047;DHT22;62025;39.238;9.126;2024-03-25T04:18:08;14.40;59.50
63047;DHT22;62025;39.238;9.126;2024-03-25T04:20:41;14.60;59.50
63047;DHT22;62025;39.238;9.126;2024-03-25T04:23:08;14.60;59.20
63047;DHT22;62025;39.238;9.126;2024-03-25T04:25:34;14.60;59.30
63047;DHT22;62025;39.238;9.126;2024-03-25T04:28:03;14.60;59.00
63047;DHT22;62025;39.238;9.126;2024-03-25T04:30:31;14.60;59.10
63047;DHT22;62025;39.238;9.126;2024-03-25T04:32:58;14.60;59.10
63047;DHT22;62025;39.238;9.126;2024-03-25T04:35:25;14.60;59.20
63047;DHT22;62025;39.238;9.126;2024-03-25T04:37:51;14.60;59.30
63047;DHT22;62025;39.238;9.126;2024-03-25T04:40:17;14.50;59.70
63047;DHT22;62025;39.238;9.126;2024-03-25T04:42:44;14.50;59.70
63047;DHT22;62025;39.238;9.126;2024-03-25T04:45:11;14.50;59.90
63047;DHT22;62025;39.238;9.126;2024-03-25T04:47:38;14.60;59.50
63047;DHT22;62025;39.238;9.126;2024-03-25T04:50:04;14.60;59.30
63047;DHT22;62025;39.238;9.126;2024-03-25T04:52:31;14.60;59.30
63047;DHT22;62025;39.238;9.126;2024-03-25T04:54:57;14.60;59.40
63047;DHT22;62025;39.238;9.126;2024-03-25T04:57:23;14.60;59.60
63047;DHT22;62025;39.238;9.126;2024-03-25T04:59:49;14.50;59.90
63047;DHT22;62025;39.238;9.126;2024-03-25T05:02:15;14.40;60.30
63047;DHT22;62025;39.238;9.126;2024-03-25T05:04:41;14.50;59.90
63047;DHT22;62025;39.238;9.126;2024-03-25T05:07:07;14.50;59.80
63047;DHT22;62025;39.238;9.126;2024-03-25T05:09:33;14.50;59.80
63047;DHT22;62025;39.238;9.126;2024-03-25T05:11:59;14.50;59.70
63047;DHT22;62025;39.238;9.126;2024-03-25T05:14:25;14.50;59.60
63047;DHT22;62025;39.238;9.126;2024-03-25T05:16:51;14.50;59.60
63047;DHT22;62025;39.238;9.126;2024-03-25T05:19:18;14.50;59.90
63047;DHT22;62025;39.238;9.126;2024-03-25T05:21:44;14.40;59.90
63047;DHT22;62025;39.238;9.126;2024-03-25T05:24:11;14.50;59.80
63047;DHT22;62025;39.238;9.126;2024-03-25T05:26:37;14.50;59.80
63047;DHT22;62025;39.238;9.126;2024-03-25T05:29:03;14.50;59.70
63047;DHT22;62025;39.238;9.126;2024-03-25T05:31:29;14.50;59.70
63047;DHT22;62025;39.238;9.126;2024-03-25T05:33:57;14.50;59.90
63047;DHT22;62025;39.238;9.126;2024-03-25T05:36:25;14.50;60.20
63047;DHT22;62025;39.238;9.126;2024-03-25T05:38:52;14.50;60.40
63047;DHT22;62025;39.238;9.126;2024-03-25T05:41:18;14.50;60.60
63047;DHT22;62025;39.238;9.126;2024-03-25T05:43:44;14.30;61.20
63047;DHT22;62025;39.238;9.126;2024-03-25T05:46:10;14.40;61.90
63047;DHT22;62025;39.238;9.126;2024-03-25T05:48:36;14.30;62.50
63047;DHT22;62025;39.238;9.126;2024-03-25T05:51:03;14.40;63.00
63047;DHT22;62025;39.238;9.126;2024-03-25T05:53:34;14.40;63.40
63047;DHT22;62025;39.238;9.126;2024-03-25T05:56:00;14.50;64.30
63047;DHT22;62025;39.238;9.126;2024-03-25T05:58:26;14.50;64.10
63047;DHT22;62025;39.238;9.126;2024-03-25T06:00:53;14.40;64.20
63047;DHT22;62025;39.238;9.126;2024-03-25T06:03:20;14.40;64.30
63047;DHT22;62025;39.238;9.126;2024-03-25T06:05:46;14.40;64.50
63047;DHT22;62025;39.238;9.126;2024-03-25T06:08:12;14.40;64.20
63047;DHT22;62025;39.238;9.126;2024-03-25T06:10:46;14.40;64.40
63047;DHT22;62025;39.238;9.126;2024-03-25T06:13:12;14.30;64.20
63047;DHT22;62025;39.238;9.126;2024-03-25T06:15:38;14.30;64.20
63047;DHT22;62025;39.238;9.126;2024-03-25T06:18:04;14.30;64.30
63047;DHT22;62025;39.238;9.126;2024-03-25T06:20:30;14.30;64.30
63047;DHT22;62025;39.238;9.126;2024-03-25T06:22:56;14.30;63.90
63047;DHT22;62025;39.238;9.126;2024-03-25T06:25:22;14.20;64.20
63047;DHT22;62025;39.238;9.126;2024-03-25T06:27:48;14.20;64.60
63047;DHT22;62025;39.238;9.126;2024-03-25T06:30:14;14.30;64.60
63047;DHT22;62025;39.238;9.126;2024-03-25T06:32:59;14.40;64.30
63047;DHT22;62025;39.238;9.126;2024-03-25T06:35:44;14.40;64.50
63047;DHT22;62025;39.238;9.126;2024-03-25T06:38:10;14.50;64.50
63047;DHT22;62025;39.238;9.126;2024-03-25T06:40:37;14.50;65.20
63047;DHT22;62025;39.238;9.126;2024-03-25T06:43:04;14.50;65.00
63047;DHT22;62025;39.238;9.126;2024-03-25T06:45:31;14.50;64.70
63047;DHT22;62025;39.238;9.126;2024-03-25T06:47:57;14.60;65.50
63047;DHT22;62025;39.238;9.126;2024-03-25T06:50:24;14.60;65.60
63047;DHT22;62025;39.238;9.126;2024-03-25T06:52:50;14.60;65.30
63047;DHT22;62025;39.238;9.126;2024-03-25T06:55:17;14.50;64.90
63047;DHT22;62025;39.238;9.126;2024-03-25T06:57:48;14.60;64.80
63047;DHT22;62025;39.238;9.126;2024-03-25T07:00:14;14.60;65.30
63047;DHT22;62025;39.238;9.126;2024-03-25T07:02:41;14.70;65.10
63047;DHT22;62025;39.238;9.126;2024-03-25T07:05:07;14.70;65.10
63047;DHT22;62025;39.238;9.126;2024-03-25T07:07:34;14.60;64.80
63047;DHT22;62025;39.238;9.126;2024-03-25T07:10:03;14.70;65.00
63047;DHT22;62025;39.238;9.126;2024-03-25T07:12:29;14.60;64.50
63047;DHT22;62025;39.238;9.126;2024-03-25T07:14:55;14.70;64.00
63047;DHT22;62025;39.238;9.126;2024-03-25T07:17:21;14.70;63.90
63047;DHT22;62025;39.238;9.126;2024-03-25T07:19:48;14.70;64.20
63047;DHT22;62025;39.238;9.126;2024-03-25T07:22:14;14.60;64.00
63047;DHT22;62025;39.238;9.126;2024-03-25T07:24:40;14.60;64.10
63047;DHT22;62025;39.238;9.126;2024-03-25T07:27:06;14.30;64.80
63047;DHT22;62025;39.238;9.126;2024-03-25T07:29:33;14.30;65.60
63047;DHT22;62025;39.238;9.126;2024-03-25T07:31:59;14.40;65.00
63047;DHT22;62025;39.238;9.126;2024-03-25T07:34:26;14.40;65.10
63047;DHT22;62025;39.238;9.126;2024-03-25T07:36:52;14.30;65.30
63047;DHT22;62025;39.238;9.126;2024-03-25T07:39:18;14.30;65.50
63047;DHT22;62025;39.238;9.126;2024-03-25T07:41:44;14.40;65.90
63047;DHT22;62025;39.238;9.126;2024-03-25T07:44:11;14.30;66.80
63047;DHT22;62025;39.238;9.126;2024-03-25T07:46:37;14.30;66.30
63047;DHT22;62025;39.238;9.126;2024-03-25T07:49:03;14.40;66.30
63047;DHT22;62025;39.238;9.126;2024-03-25T07:51:29;14.10;67.10
63047;DHT22;62025;39.238;9.126;2024-03-25T07:53:55;14.30;66.60
63047;DHT22;62025;39.238;9.126;2024-03-25T07:56:21;14.20;66.70
63047;DHT22;62025;39.238;9.126;2024-03-25T07:58:47;14.10;67.00
63047;DHT22;62025;39.238;9.126;2024-03-25T08:01:13;14.10;67.50
63047;DHT22;62025;39.238;9.126;2024-03-25T08:03:39;14.10;67.50
63047;DHT22;62025;39.238;9.126;2024-03-25T08:06:05;14.20;67.50
63047;DHT22;62025;39.238;9.126;2024-03-25T08:08:32;14.10;68.00
63047;DHT22;62025;39.238;9.126;2024-03-25T08:10:58;14.20;68.10
63047;DHT22;62025;39.238;9.126;2024-03-25T08:13:24;14.30;68.20
63047;DHT22;62025;39.238;9.126;2024-03-25T08:15:52;14.30;68.80
63047;DHT22;62025;39.238;9.126;2024-03-25T08:18:18;14.30;69.30
63047;DHT22;62025;39.238;9.126;2024-03-25T08:20:44;14.40;70.70
63047;DHT22;62025;39.238;9.126;2024-03-25T08:23:10;14.60;72.10
63047;DHT22;62025;39.238;9.126;2024-03-25T08:25:36;14.70;72.40
63047;DHT22;62025;39.238;9.126;2024-03-25T08:28:02;14.80;72.80
63047;DHT22;62025;39.238;9.126;2024-03-25T08:30:29;14.90;72.60
63047;DHT22;62025;39.238;9.126;2024-03-25T08:32:54;14.90;72.60
63047;DHT22;62025;39.238;9.126;2024-03-25T08:35:21;15.00;72.60
63047;DHT22;62025;39.238;9.126;2024-03-25T08:37:47;14.90;72.70
63047;DHT22;62025;39.238;9.126;2024-03-25T08:40:13;15.00;72.30
63047;DHT22;62025;39.238;9.126;2024-03-25T08:42:39;15.00;72.00
63047;DHT22;62025;39.238;9.126;2024-03-25T08:45:05;15.10;71.80
63047;DHT22;62025;39.238;9.126;2024-03-25T08:47:32;15.10;71.80
63047;DHT22;62025;39.238;9.126;2024-03-25T08:49:58;15.20;71.60
63047;DHT22;62025;39.238;9.126;2024-03-25T08:52:25;15.10;71.40
63047;DHT22;62025;39.238;9.126;2024-03-25T08:54:51;15.20;71.40
63047;DHT22;62025;39.238;9.126;2024-03-25T08:57:17;15.10;71.50
63047;DHT22;62025;39.238;9.126;2024-03-25T08:59:43;15.10;71.80
63047;DHT22;62025;39.238;9.126;2024-03-25T09:02:09;15.20;71.70
63047;DHT22;62025;39.238;9.126;2024-03-25T09:04:35;15.10;71.20
63047;DHT22;62025;39.238;9.126;2024-03-25T09:07:00;15.10;71.20
63047;DHT22;62025;39.238;9.126;2024-03-25T09:09:26;15.30;71.20
63047;DHT22;62025;39.238;9.126;2024-03-25T09:12:31;15.20;71.40
63047;DHT22;62025;39.238;9.126;2024-03-25T09:14:57;15.20;71.40
63047;DHT22;62025;39.238;9.126;2024-03-25T09:17:23;15.10;70.90
63047;DHT22;62025;39.238;9.126;2024-03-25T09:19:50;15.10;71.00
63047;DHT22;62025;39.238;9.126;2024-03-25T09:22:17;15.10;70.70
63047;DHT22;62025;39.238;9.126;2024-03-25T09:24:43;15.10;70.50
63047;DHT22;62025;39.238;9.126;2024-03-25T09:27:10;15.10;70.50
63047;DHT22;62025;39.238;9.126;2024-03-25T09:29:36;15.00;70.10
63047;DHT22;62025;39.238;9.126;2024-03-25T09:32:04;15.00;70.10
63047;DHT22;62025;39.238;9.126;2024-03-25T09:34:31;15.00;70.20
63047;DHT22;62025;39.238;9.126;2024-03-25T09:36:57;15.00;70.20
63047;DHT22;62025;39.238;9.126;2024-03-25T09:39:23;15.10;69.70
63047;DHT22;62025;39.238;9.126;2024-03-25T09:41:49;15.10;69.60
63047;DHT22;62025;39.238;9.126;2024-03-25T09:44:19;15.10;69.40
63047;DHT22;62025;39.238;9.126;2024-03-25T09:46:49;15.10;69.50
63047;DHT22;62025;39.238;9.126;2024-03-25T09:49:15;15.10;69.70
63047;DHT22;62025;39.238;9.126;2024-03-25T09:51:42;15.10;69.60
63047;DHT22;62025;39.238;9.126;2024-03-25T09:54:09;15.10;69.60
63047;DHT22;62025;39.238;9.126;2024-03-25T09:56:36;15.10;69.60
63047;DHT22;62025;39.238;9.126;2024-03-25T09:59:03;15.10;69.40
63047;DHT22;62025;39.238;9.126;2024-03-25T10:01:29;15.20;69.40
63047;DHT22;62025;39.238;9.126;2024-03-25T10:03:56;15.10;69.40
63047;DHT22;62025;39.238;9.126;2024-03-25T10:06:22;15.10;69.60
63047;DHT22;62025;39.238;9.126;2024-03-25T10:08:48;15.10;69.70
63047;DHT22;62025;39.238;9.126;2024-03-25T10:11:15;15.20;70.00
63047;DHT22;62025;39.238;9.126;2024-03-25T10:13:41;15.20;70.40
63047;DHT22;62025;39.238;9.126;2024-03-25T10:16:07;15.20;70.60
63047;DHT22;62025;39.238;9.126;2024-03-25T10:18:33;15.20;70.60
63047;DHT22;62025;39.238;9.126;2024-03-25T10:20:59;15.20;70.40
63047;DHT22;62025;39.238;9.126;2024-03-25T10:23:25;15.20;70.50
63047;DHT22;62025;39.238;9.126;2024-03-25T10:25:52;15.10;70.20
63047;DHT22;62025;39.238;9.126;2024-03-25T10:28:19;15.10;70.10
63047;DHT22;62025;39.238;9.126;2024-03-25T10:30:45;15.20;69.90
63047;DHT22;62025;39.238;9.126;2024-03-25T10:33:11;15.10;69.90
63047;DHT22;62025;39.238;9.126;2024-03-25T10:35:39;15.30;70.00
63047;DHT22;62025;39.238;9.126;2024-03-25T10:38:10;15.30;70.20
63047;DHT22;62025;39.238;9.126;2024-03-25T10:40:38;15.30;70.10
63047;DHT22;62025;39.238;9.126;2024-03-25T10:43:08;15.30;69.80
63047;DHT22;62025;39.238;9.126;2024-03-25T10:45:40;15.30;69.80
63047;DHT22;62025;39.238;9.126;2024-03-25T10:48:12;15.30;69.70
63047;DHT22;62025;39.238;9.126;2024-03-25T10:50:43;15.50;69.80
63047;DHT22;62025;39.238;9.126;2024-03-25T10:53:11;15.60;69.10
63047;DHT22;62025;39.238;9.126;2024-03-25T10:55:37;15.70;68.70
63047;DHT22;62025;39.238;9.126;2024-03-25T10:58:07;15.70;68.80
63047;DHT22;62025;39.238;9.126;2024-03-25T11:00:35;15.80;68.90
63047;DHT22;62025;39.238;9.126;2024-03-25T11:03:02;15.80;68.20
63047;DHT22;62025;39.238;9.126;2024-03-25T11:05:28;15.80;67.70
63047;DHT22;62025;39.238;9.126;2024-03-25T11:07:55;15.80;67.20
63047;DHT22;62025;39.238;9.126;2024-03-25T11:10:29;15.80;66.80
63047;DHT22;62025;39.238;9.126;2024-03-25T11:12:55;15.80;67.00
63047;DHT22;62025;39.238;9.126;2024-03-25T11:15:21;15.80;67.00
63047;DHT22;62025;39.238;9.126;2024-03-25T11:17:50;15.80;66.70
63047;DHT22;62025;39.238;9.126;2024-03-25T11:20:17;15.80;66.70
63047;DHT22;62025;39.238;9.126;2024-03-25T11:22:53;15.80;67.10
63047;DHT22;62025;39.238;9.126;2024-03-25T11:25:22;15.70;67.20
63047;DHT22;62025;39.238;9.126;2024-03-25T11:27:48;15.80;67.80
63047;DHT22;62025;39.238;9.126;2024-03-25T11:30:15;15.80;67.90
63047;DHT22;62025;39.238;9.126;2024-03-25T11:32:54;15.90;67.90
63047;DHT22;62025;39.238;9.126;2024-03-25T11:35:21;15.90;67.60
63047;DHT22;62025;39.238;9.126;2024-03-25T11:37:48;15.90;67.80
63047;DHT22;62025;39.238;9.126;2024-03-25T11:40:18;16.00;67.40
63047;DHT22;62025;39.238;9.126;2024-03-25T11:42:45;16.20;66.90
63047;DHT22;62025;39.238;9.126;2024-03-25T11:45:16;16.20;65.80
63047;DHT22;62025;39.238;9.126;2024-03-25T11:47:45;16.20;64.80
63047;DHT22;62025;39.238;9.126;2024-03-25T11:50:13;16.30;64.10
63047;DHT22;62025;39.238;9.126;2024-03-25T11:52:40;16.40;63.80
63047;DHT22;62025;39.238;9.126;2024-03-25T11:55:07;16.60;63.60
63047;DHT22;62025;39.238;9.126;2024-03-25T11:57:35;16.50;62.60
63047;DHT22;62025;39.238;9.126;2024-03-25T12:00:02;16.60;62.60
63047;DHT22;62025;39.238;9.126;2024-03-25T12:02:42;16.70;62.20
63047;DHT22;62025;39.238;9.126;2024-03-25T12:05:10;16.90;62.10
63047;DHT22;62025;39.238;9.126;2024-03-25T12:07:36;17.10;61.60
63047;DHT22;62025;39.238;9.126;2024-03-25T12:10:03;17.40;61.10
63047;DHT22;62025;39.238;9.126;2024-03-25T12:12:50;17.30;60.90
63047;DHT22;62025;39.238;9.126;2024-03-25T12:15:22;17.30;60.40
63047;DHT22;62025;39.238;9.126;2024-03-25T12:17:49;17.40;60.00
63047;DHT22;62025;39.238;9.126;2024-03-25T12:20:16;17.60;60.20
63047;DHT22;62025;39.238;9.126;2024-03-25T12:22:43;17.60;60.00
63047;DHT22;62025;39.238;9.126;2024-03-25T12:25:10;17.70;60.10
63047;DHT22;62025;39.238;9.126;2024-03-25T12:27:38;17.70;60.60
63047;DHT22;62025;39.238;9.126;2024-03-25T12:30:08;17.50;62.60
63047;DHT22;62025;39.238;9.126;2024-03-25T12:32:38;17.20;64.50
63047;DHT22;62025;39.238;9.126;2024-03-25T12:35:09;17.20;65.30
63047;DHT22;62025;39.238;9.126;2024-03-25T12:37:37;17.10;65.40
63047;DHT22;62025;39.238;9.126;2024-03-25T12:40:05;17.30;65.00
63047;DHT22;62025;39.238;9.126;2024-03-25T12:42:34;17.30;64.10
63047;DHT22;62025;39.238;9.126;2024-03-25T12:45:00;17.30;64.00
63047;DHT22;62025;39.238;9.126;2024-03-25T12:47:26;17.50;63.30
63047;DHT22;62025;39.238;9.126;2024-03-25T12:49:52;17.30;62.60
63047;DHT22;62025;39.238;9.126;2024-03-25T12:52:18;17.30;63.70
63047;DHT22;62025;39.238;9.126;2024-03-25T12:54:44;17.40;63.60
63047;DHT22;62025;39.238;9.126;2024-03-25T12:57:11;17.40;62.80
63047;DHT22;62025;39.238;9.126;2024-03-25T12:59:37;17.30;62.90
63047;DHT22;62025;39.238;9.126;2024-03-25T13:02:03;17.40;63.20
63047;DHT22;62025;39.238;9.126;2024-03-25T13:04:30;17.30;65.00
63047;DHT22;62025;39.238;9.126;2024-03-25T13:06:56;17.10;65.70
63047;DHT22;62025;39.238;9.126;2024-03-25T13:09:22;17.00;66.70
63047;DHT22;62025;39.238;9.126;2024-03-25T13:11:48;16.80;67.20
63047;DHT22;62025;39.238;9.126;2024-03-25T13:14:14;17.00;66.70
63047;DHT22;62025;39.238;9.126;2024-03-25T13:16:41;16.80;66.50
63047;DHT22;62025;39.238;9.126;2024-03-25T13:19:07;16.50;68.20
63047;DHT22;62025;39.238;9.126;2024-03-25T13:21:33;16.60;68.50
63047;DHT22;62025;39.238;9.126;2024-03-25T13:23:59;16.50;69.00
63047;DHT22;62025;39.238;9.126;2024-03-25T13:26:26;16.80;68.60
63047;DHT22;62025;39.238;9.126;2024-03-25T13:28:53;16.70;68.80
63047;DHT22;62025;39.238;9.126;2024-03-25T13:31:19;16.60;68.80
63047;DHT22;62025;39.238;9.126;2024-03-25T13:33:45;16.60;69.30
63047;DHT22;62025;39.238;9.126;2024-03-25T13:36:11;16.50;68.90
63047;DHT22;62025;39.238;9.126;2024-03-25T13:38:37;16.60;68.70
63047;DHT22;62025;39.238;9.126;2024-03-25T13:41:04;16.50;69.60
63047;DHT22;62025;39.238;9.126;2024-03-25T13:43:31;16.50;70.20
63047;DHT22;62025;39.238;9.126;2024-03-25T13:45:57;16.50;70.20
63047;DHT22;62025;39.238;9.126;2024-03-25T13:48:23;16.50;70.10
63047;DHT22;62025;39.238;9.126;2024-03-25T13:50:49;16.60;70.20
63047;DHT22;62025;39.238;9.126;2024-03-25T13:53:21;16.60;69.30
63047;DHT22;62025;39.238;9.126;2024-03-25T13:55:47;16.60;69.70
63047;DHT22;62025;39.238;9.126;2024-03-25T13:58:13;16.60;69.40
63047;DHT22;62025;39.238;9.126;2024-03-25T14:00:40;16.60;69.10
63047;DHT22;62025;39.238;9.126;2024-03-25T14:03:06;16.50;69.30
63047;DHT22;62025;39.238;9.126;2024-03-25T14:05:32;16.60;69.20
63047;DHT22;62025;39.238;9.126;2024-03-25T14:07:58;16.60;68.90
63047;DHT22;62025;39.238;9.126;2024-03-25T14:10:24;16.60;68.30
63047;DHT22;62025;39.238;9.126;2024-03-25T14:12:50;16.80;68.20
63047;DHT22;62025;39.238;9.126;2024-03-25T14:15:16;16.90;68.10
63047;DHT22;62025;39.238;9.126;2024-03-25T14:17:42;16.90;67.90
63047;DHT22;62025;39.238;9.126;2024-03-25T14:20:09;16.80;67.30
63047;DHT22;62025;39.238;9.126;2024-03-25T14:22:36;16.90;67.10
63047;DHT22;62025;39.238;9.126;2024-03-25T14:25:02;17.00;66.20
63047;DHT22;62025;39.238;9.126;2024-03-25T14:27:28;17.20;65.90
63047;DHT22;62025;39.238;9.126;2024-03-25T14:29:54;17.30;66.00
63047;DHT22;62025;39.238;9.126;2024-03-25T14:32:21;17.30;66.30
63047;DHT22;62025;39.238;9.126;2024-03-25T14:34:48;17.30;66.00
63047;DHT22;62025;39.238;9.126;2024-03-25T14:37:14;17.30;65.40
63047;DHT22;62025;39.238;9.126;2024-03-25T14:39:41;17.30;65.30
63047;DHT22;62025;39.238;9.126;2024-03-25T14:42:08;17.30;65.60
63047;DHT22;62025;39.238;9.126;2024-03-25T14:44:36;17.30;65.40
63047;DHT22;62025;39.238;9.126;2024-03-25T14:47:03;17.30;65.00
63047;DHT22;62025;39.238;9.126;2024-03-25T14:49:30;17.30;65.10
63047;DHT22;62025;39.238;9.126;2024-03-25T14:51:57;17.30;65.10
63047;DHT22;62025;39.238;9.126;2024-03-25T14:54:23;17.30;65.00
63047;DHT22;62025;39.238;9.126;2024-03-25T14:56:50;17.40;64.40
63047;DHT22;62025;39.238;9.126;2024-03-25T14:59:16;17.50;63.00
63047;DHT22;62025;39.238;9.126;2024-03-25T15:01:42;17.60;62.30
63047;DHT22;62025;39.238;9.126;2024-03-25T15:04:08;17.50;62.20
63047;DHT22;62025;39.238;9.126;2024-03-25T15:06:34;17.60;62.60
63047;DHT22;62025;39.238;9.126;2024-03-25T15:09:01;17.50;62.70
63047;DHT22;62025;39.238;9.126;2024-03-25T15:11:27;17.40;62.50
63047;DHT22;62025;39.238;9.126;2024-03-25T15:13:54;17.40;63.40
63047;DHT22;62025;39.238;9.126;2024-03-25T15:16:20;17.60;63.80
63047;DHT22;62025;39.238;9.126;2024-03-25T15:18:46;17.60;63.60
63047;DHT22;62025;39.238;9.126;2024-03-25T15:21:12;17.50;64.10
63047;DHT22;62025;39.238;9.126;2024-03-25T15:23:38;17.30;64.70
63047;DHT22;62025;39.238;9.126;2024-03-25T15:26:05;17.20;65.40
63047;DHT22;62025;39.238;9.126;2024-03-25T15:28:31;16.90;66.50